Time;durP1;ratioP1;P1;durP2;ratioP2;P2;SDS_P1;SDS_P2;PMS_P1;PMS_P2;Temp;Humidity;BMP_temperature;BMP_pressure;BME280_temperature;BME280_humidity;BME280_pressure;Samples;Min_cycle;Max_cycle;Signal;HPM_P1;HPM_P2
2023/12/11 00:01:23;;;;;;;52.83;7.07;;;;;;;-145.18;100.00;46687.75;5070830;28;20040;-72
2023/12/11 00:03:49;;;;;;;35.23;5.40;;;;;;;-145.18;100.00;46681.88;5072610;28;20488;-73
2023/12/11 00:06:14;;;;;;;43.07;5.53;;;;;;;-145.18;100.00;46693.59;5088724;28;20035;-73
2023/12/11 00:08:39;;;;;;;39.70;5.13;;;;;;;-145.18;100.00;46695.56;5093449;28;20032;-73
2023/12/11 00:11:05;;;;;;;50.97;6.70;;;;;;;-145.18;100.00;46687.75;5085773;28;20074;-72
2023/12/11 00:13:30;;;;;;;43.17;5.93;;;;;;;-145.18;100.00;46695.56;5080770;28;20127;-73
2023/12/11 00:15:56;;;;;;;43.07;8.20;;;;;;;-145.18;100.00;46695.56;5094269;28;20373;-73
2023/12/11 00:18:21;;;;;;;44.43;5.23;;;;;;;-145.18;100.00;46697.50;5093916;28;20031;-73
2023/12/11 00:20:47;;;;;;;45.00;5.53;;;;;;;-145.18;100.00;46685.78;5088808;28;20085;-73
2023/12/11 00:23:12;;;;;;;47.70;5.57;;;;;;;-145.18;100.00;46685.78;5093592;28;20036;-73
2023/12/11 00:25:45;;;;;;;58.17;5.33;;;;;;;-145.18;100.00;46689.69;5085511;28;20032;-73
2023/12/11 00:28:11;;;;;;;39.67;4.97;;;;;;;-145.18;100.00;46687.75;5086309;28;20492;-73
2023/12/11 00:30:36;;;;;;;43.80;7.03;;;;;;;-145.18;100.00;46687.75;5081815;28;20271;-72
2023/12/11 00:33:02;;;;;;;29.43;4.50;;;;;;;-145.18;100.00;46693.59;5090017;28;20029;-72
2023/12/11 00:35:27;;;;;;;53.17;5.73;;;;;;;-145.18;100.00;46681.88;5079533;28;20052;-72
2023/12/11 00:37:52;;;;;;;52.87;7.50;;;;;;;-145.18;100.00;46677.97;5082428;28;20718;-73
2023/12/11 00:40:18;;;;;;;43.57;5.57;;;;;;;-145.18;100.00;46699.47;5077962;28;20135;-73
2023/12/11 00:42:43;;;;;;;49.67;6.17;;;;;;;-145.18;100.00;46693.59;5075465;28;20075;-73
2023/12/11 00:45:12;;;;;;;42.70;5.73;;;;;;;-145.18;100.00;46687.75;5074804;28;20435;-73
2023/12/11 00:47:37;;;;;;;40.93;6.10;;;;;;;-145.18;100.00;46695.56;5086508;28;20077;-73
2023/12/11 00:50:03;;;;;;;27.97;4.27;;;;;;;-145.18;100.00;46699.47;5080216;28;20386;-72
2023/12/11 00:52:28;;;;;;;44.47;5.83;;;;;;;-145.18;100.00;46687.75;5074794;28;20515;-73
2023/12/11 00:54:54;;;;;;;36.33;4.77;;;;;;;-145.18;100.00;46695.56;5085801;28;20041;-72
2023/12/11 00:57:19;;;;;;;53.17;5.60;;;;;;;-145.18;100.00;46687.75;5074840;28;20043;-71
2023/12/11 00:59:44;;;;;;;40.37;5.70;;;;;;;-145.18;100.00;46705.31;5076220;28;20033;-72
2023/12/11 01:02:10;;;;;;;37.97;5.37;;;;;;;-145.18;100.00;46701.41;5084338;28;20115;-71
2023/12/11 01:04:35;;;;;;;33.70;4.13;;;;;;;-145.18;100.00;46689.69;5078935;28;20028;-71
2023/12/11 01:07:01;;;;;;;45.00;5.33;;;;;;;-145.18;100.00;46691.66;5081009;28;20139;-71
2023/12/11 01:09:26;;;;;;;35.87;5.17;;;;;;;-145.18;100.00;46697.50;5087636;28;20052;-71
2023/12/11 01:11:52;;;;;;;30.40;4.40;;;;;;;-145.18;100.00;46693.59;5080262;28;20373;-72
2023/12/11 01:14:17;;;;;;;57.03;7.03;;;;;;;-145.18;100.00;46699.47;5083682;28;20081;-72
2023/12/11 01:16:42;;;;;;;42.77;4.23;;;;;;;-145.18;100.00;46699.47;5086818;28;20039;-72
2023/12/11 01:19:08;;;;;;;38.20;4.90;;;;;;;-145.18;100.00;46703.38;5083304;28;20032;-72
2023/12/11 01:21:33;;;;;;;42.70;5.03;;;;;;;-145.18;100.00;46697.50;5077980;28;20036;-72
2023/12/11 01:23:59;;;;;;;35.47;5.03;;;;;;;-145.18;100.00;46709.22;5073779;28;20024;-71
2023/12/11 01:26:24;;;;;;;34.97;5.63;;;;;;;-145.18;100.00;46691.66;5096960;28;20032;-72
2023/12/11 01:28:49;;;;;;;44.73;5.53;;;;;;;-145.18;100.00;46701.41;5076020;28;20108;-72
2023/12/11 01:31:15;;;;;;;34.10;4.27;;;;;;;-145.18;100.00;46703.38;5076433;28;20036;-71
2023/12/11 01:33:40;;;;;;;44.10;4.27;;;;;;;-145.18;100.00;46703.38;5079083;28;20070;-72
2023/12/11 01:36:06;;;;;;;36.37;5.27;;;;;;;-145.18;100.00;46705.31;5075690;28;20029;-71
2023/12/11 01:38:31;;;;;;;27.77;5.13;;;;;;;-145.18;100.00;46703.38;5077469;28;20467;-72
2023/12/11 01:40:57;;;;;;;47.30;6.23;;;;;;;-145.18;100.00;46705.31;5074263;28;20411;-72
2023/12/11 01:43:22;;;;;;;42.83;5.57;;;;;;;-145.18;100.00;46701.41;5082069;28;20094;-72
2023/12/11 01:46:05;;;;;;;25.50;4.47;;;;;;;-145.18;100.00;46709.22;5072857;28;20407;-71
2023/12/11 01:48:32;;;;;;;35.87;5.50;;;;;;;-145.18;100.00;46705.31;5077876;28;20024;-71
2023/12/11 01:50:58;;;;;;;29.37;4.33;;;;;;;-145.18;100.00;46703.38;5090935;28;20108;-72
2023/12/11 01:53:25;;;;;;;40.03;5.63;;;;;;;-145.18;100.00;46709.22;5078582;28;20115;-72
2023/12/11 01:55:50;;;;;;;35.07;5.07;;;;;;;-145.18;100.00;46703.38;5074742;28;20032;-72
2023/12/11 01:58:17;;;;;;;33.90;4.97;;;;;;;-145.18;100.00;46699.47;5072964;28;20028;-72
2023/12/11 02:00:43;;;;;;;44.57;5.43;;;;;;;-145.18;100.00;46689.69;5084135;28;20043;-72
2023/12/11 02:03:11;;;;;;;32.93;3.73;;;;;;;-145.18;100.00;46699.47;5083025;28;20036;-72
2023/12/11 02:05:37;;;;;;;31.57;4.93;;;;;;;-145.18;100.00;46693.59;5074342;28;20111;-71
2023/12/11 02:08:03;;;;;;;24.07;3.30;;;;;;;-145.18;100.00;46697.50;5087755;28;20458;-72
2023/12/11 02:10:29;;;;;;;36.50;4.63;;;;;;;-145.18;100.00;46691.66;5077476;28;20027;-72
2023/12/11 02:12:54;;;;;;;33.77;4.93;;;;;;;-145.18;100.00;46703.38;5084793;28;20048;-72
2023/12/11 02:15:43;;;;;;;35.93;3.93;;;;;;;-145.18;100.00;46703.38;5071645;28;20567;-72
2023/12/11 02:18:10;;;;;;;29.90;4.23;;;;;;;-145.18;100.00;46701.41;5083736;28;20503;-72
2023/12/11 02:20:37;;;;;;;30.23;4.93;;;;;;;-145.18;100.00;46703.38;5088691;28;20031;-72
2023/12/11 02:23:06;;;;;;;39.03;5.27;;;;;;;-145.18;100.00;46697.50;5091286;28;20023;-72
2023/12/11 02:25:35;;;;;;;40.97;4.77;;;;;;;-145.18;100.00;46693.59;5085084;28;20129;-72
2023/12/11 02:28:01;;;;;;;35.77;5.00;;;;;;;-145.18;100.00;46701.41;5085310;28;20020;-72
2023/12/11 02:30:29;;;;;;;38.53;4.47;;;;;;;-145.18;100.00;46697.50;5085068;28;20030;-72
2023/12/11 02:32:54;;;;;;;37.20;4.80;;;;;;;-145.18;100.00;46705.31;5074005;28;20029;-72
2023/12/11 02:35:20;;;;;;;38.77;4.40;;;;;;;-145.18;100.00;46707.28;5079668;28;20401;-72
2023/12/11 02:37:45;;;;;;;24.43;4.50;;;;;;;-145.18;100.00;46703.38;5076331;28;20035;-73
2023/12/11 02:40:11;;;;;;;36.30;4.53;;;;;;;-145.18;100.00;46707.28;5079028;28;20399;-72
2023/12/11 02:42:36;;;;;;;41.10;4.30;;;;;;;-145.18;100.00;46703.38;5074791;28;20036;-73
2023/12/11 02:45:02;;;;;;;31.03;4.23;;;;;;;-145.18;100.00;46705.31;5086777;28;20495;-72
2023/12/11 02:47:27;;;;;;;39.93;5.77;;;;;;;-145.18;100.00;46707.28;5091484;28;20484;-72
2023/12/11 02:49:52;;;;;;;35.97;3.73;;;;;;;-145.18;100.00;46709.22;5080750;28;20024;-72
2023/12/11 02:52:18;;;;;;;30.30;4.27;;;;;;;-145.18;100.00;46703.38;5079581;28;20028;-71
2023/12/11 02:54:43;;;;;;;42.40;5.23;;;;;;;-145.18;100.00;46707.28;5077787;28;20098;-72
2023/12/11 02:57:09;;;;;;;35.83;4.17;;;;;;;-145.18;100.00;46701.41;5080007;28;20362;-71
2023/12/11 02:59:34;;;;;;;35.80;5.20;;;;;;;-145.18;100.00;46701.41;5075471;28;20037;-71
2023/12/11 03:02:00;;;;;;;32.50;4.97;;;;;;;-145.18;100.00;46687.75;5083294;28;20100;-71
2023/12/11 03:04:25;;;;;;;33.80;4.27;;;;;;;-145.18;100.00;46699.47;5086528;28;20488;-72
2023/12/11 03:06:52;;;;;;;32.97;4.63;;;;;;;-145.18;100.00;46701.41;5062425;28;20032;-72
2023/12/11 03:09:17;;;;;;;39.53;5.00;;;;;;;-145.18;100.00;46681.88;5085749;28;20492;-65
2023/12/11 03:11:42;;;;;;;30.47;4.87;;;;;;;-145.18;100.00;46679.94;5082588;28;20308;-66
2023/12/11 03:14:08;;;;;;;31.30;4.47;;;;;;;-145.18;100.00;46683.84;5074440;28;20071;-66
2023/12/11 03:16:33;;;;;;;33.43;3.80;;;;;;;-145.18;100.00;46670.16;5072100;28;20029;-66
2023/12/11 03:18:59;;;;;;;44.40;5.10;;;;;;;-145.18;100.00;46672.13;5075955;28;20024;-66
2023/12/11 03:21:24;;;;;;;33.47;4.40;;;;;;;-145.18;100.00;46672.13;5071707;28;20154;-66
2023/12/11 03:23:50;;;;;;;41.67;5.17;;;;;;;-145.18;100.00;46674.06;5070832;28;20089;-66
2023/12/11 03:26:15;;;;;;;36.90;4.53;;;;;;;-145.18;100.00;46664.31;5072591;28;20502;-66
2023/12/11 03:28:41;;;;;;;42.10;4.63;;;;;;;-145.18;100.00;46664.31;5077604;28;20039;-66
2023/12/11 03:31:06;;;;;;;41.87;4.90;;;;;;;-145.18;100.00;46674.06;5080023;28;20146;-66
2023/12/11 03:33:32;;;;;;;31.87;3.97;;;;;;;-145.18;100.00;46679.94;5078011;28;20434;-66
2023/12/11 03:35:57;;;;;;;41.63;4.57;;;;;;;-145.18;100.00;46664.31;5071668;28;20029;-66
2023/12/11 03:38:22;;;;;;;44.40;6.27;;;;;;;-145.18;100.00;46679.94;5093308;28;20050;-66
2023/12/11 03:40:48;;;;;;;27.90;4.00;;;;;;;-145.18;100.00;46676.03;5078633;28;20039;-66
2023/12/11 03:43:13;;;;;;;36.83;4.90;;;;;;;-145.18;100.00;46672.13;5081377;28;20036;-66
2023/12/11 03:45:38;;;;;;;43.73;6.07;;;;;;;-145.18;100.00;46674.06;5072830;28;20147;-66
2023/12/11 03:48:04;;;;;;;40.53;4.40;;;;;;;-145.18;100.00;46679.94;5075694;28;20024;-66
2023/12/11 03:50:29;;;;;;;33.37;5.13;;;;;;;-145.18;100.00;46683.84;5078589;28;20127;-66
2023/12/11 03:52:55;;;;;;;31.23;4.60;;;;;;;-145.18;100.00;46677.97;5082655;28;20534;-66
2023/12/11 03:55:20;;;;;;;32.27;4.70;;;;;;;-145.18;100.00;46685.78;5073818;28;20024;-66
2023/12/11 03:57:46;;;;;;;29.63;4.33;;;;;;;-145.18;100.00;46687.75;5075469;28;20032;-66
2023/12/11 04:00:13;;;;;;;38.73;6.47;;;;;;;-145.18;100.00;46691.66;5086258;28;20561;-66
2023/12/11 04:02:38;;;;;;;32.23;4.17;;;;;;;-145.18;100.00;46691.66;5088343;28;20037;-66
2023/12/11 04:05:04;;;;;;;34.50;4.47;;;;;;;-145.18;100.00;46687.75;5078758;28;20020;-66
2023/12/11 04:07:29;;;;;;;37.87;4.80;;;;;;;-145.18;100.00;46701.41;5074251;28;20039;-66
2023/12/11 04:09:55;;;;;;;42.50;6.47;;;;;;;-145.18;100.00;46701.41;5075234;28;20392;-66
2023/12/11 04:12:20;;;;;;;37.90;4.43;;;;;;;-145.18;100.00;46703.38;5075404;28;20505;-66
2023/12/11 04:14:46;;;;;;;35.47;4.47;;;;;;;-145.18;100.00;46697.50;5074825;28;20028;-68
2023/12/11 04:17:11;;;;;;;34.17;4.27;;;;;;;-145.18;100.00;46703.38;5077723;28;20047;-66
2023/12/11 04:19:37;;;;;;;31.50;4.67;;;;;;;-145.18;100.00;46703.38;5084539;28;20053;-66
2023/12/11 04:22:02;;;;;;;33.37;5.70;;;;;;;-145.18;100.00;46703.38;5081943;28;20047;-66
2023/12/11 04:24:28;;;;;;;33.97;5.53;;;;;;;-145.18;100.00;46701.41;5077410;28;20024;-66
2023/12/11 04:26:53;;;;;;;24.80;5.07;;;;;;;-145.18;100.00;46707.28;5074533;28;20028;-66
2023/12/11 04:29:19;;;;;;;33.17;4.53;;;;;;;-145.18;100.00;46695.56;5084315;28;20117;-66
2023/12/11 04:31:44;;;;;;;32.33;4.20;;;;;;;-145.18;100.00;46703.38;5078429;28;20151;-66
2023/12/11 04:34:09;;;;;;;39.53;4.37;;;;;;;-145.18;100.00;46701.41;5077591;28;20396;-66
2023/12/11 04:36:35;;;;;;;33.40;4.03;;;;;;;-145.18;100.00;46705.31;5082955;28;20028;-66
2023/12/11 04:39:00;;;;;;;34.07;4.10;;;;;;;-145.18;100.00;46705.31;5081341;28;20028;-66
2023/12/11 04:41:26;;;;;;;36.33;4.67;;;;;;;-145.18;100.00;46705.31;5081158;28;20024;-66
2023/12/11 04:43:51;;;;;;;40.00;5.63;;;;;;;-145.18;100.00;46703.38;5082384;28;20028;-66
2023/12/11 04:46:17;;;;;;;30.17;4.77;;;;;;;-145.18;100.00;46705.31;5079140;28;20034;-66
2023/12/11 04:48:42;;;;;;;42.33;4.60;;;;;;;-145.18;100.00;46707.28;5076100;28;20024;-66
2023/12/11 04:51:08;;;;;;;30.33;3.83;;;;;;;-145.18;100.00;46709.22;5075709;28;20028;-66
2023/12/11 04:53:34;;;;;;;34.00;4.43;;;;;;;-145.18;100.00;46711.19;5094123;28;20040;-66
2023/12/11 04:56:05;;;;;;;28.50;3.57;;;;;;;-145.18;100.00;46707.28;5077447;28;20130;-66
2023/12/11 04:58:30;;;;;;;34.00;4.57;;;;;;;-145.18;100.00;46713.13;5078314;28;20112;-66
2023/12/11 05:00:56;;;;;;;36.30;4.93;;;;;;;-145.18;100.00;46711.19;5085373;28;20115;-66
2023/12/11 05:03:21;;;;;;;35.77;5.13;;;;;;;-145.18;100.00;46713.13;5079375;28;20024;-66
2023/12/11 05:05:47;;;;;;;24.93;3.60;;;;;;;-145.18;100.00;46715.09;5081894;28;20028;-66
2023/12/11 05:08:12;;;;;;;21.37;4.10;;;;;;;-145.18;100.00;46711.19;5074696;28;20491;-66
2023/12/11 05:10:37;;;;;;;33.93;3.73;;;;;;;-145.18;100.00;46717.03;5083812;28;20058;-66
2023/12/11 05:13:03;;;;;;;32.87;3.57;;;;;;;-145.18;100.00;46715.09;5088274;28;20082;-66
2023/12/11 05:15:28;;;;;;;32.50;5.03;;;;;;;-145.18;100.00;46717.03;5056789;28;20040;-66
2023/12/11 05:17:54;;;;;;;42.73;4.43;;;;;;;-145.18;100.00;46717.03;5086328;28;20028;-66
2023/12/11 05:20:19;;;;;;;27.73;3.97;;;;;;;-145.18;100.00;46717.03;5075617;28;20060;-66
2023/12/11 05:22:44;;;;;;;31.80;3.90;;;;;;;-145.18;100.00;46719.00;5078405;28;20026;-66
2023/12/11 05:25:10;;;;;;;20.97;3.33;;;;;;;-145.18;100.00;46715.09;5084009;28;20036;-66
2023/12/11 05:27:35;;;;;;;24.57;5.03;;;;;;;-145.18;100.00;46715.09;5087692;28;20059;-66
2023/12/11 05:30:01;;;;;;;25.67;3.77;;;;;;;-145.18;100.00;46720.94;5075782;28;20028;-66
2023/12/11 05:32:27;;;;;;;38.50;4.27;;;;;;;-145.18;100.00;46717.03;5073393;28;20028;-66
2023/12/11 05:34:52;;;;;;;28.33;3.50;;;;;;;-145.18;100.00;46719.00;5082664;28;20039;-66
2023/12/11 05:37:17;;;;;;;26.77;4.13;;;;;;;-145.18;100.00;46720.94;5082354;28;20028;-66
2023/12/11 05:39:43;;;;;;;29.20;3.93;;;;;;;-145.18;100.00;46719.00;5085479;28;20032;-66
2023/12/11 05:42:08;;;;;;;33.43;5.70;;;;;;;-145.18;100.00;46713.13;5077770;28;20449;-65
2023/12/11 05:44:33;;;;;;;20.60;4.00;;;;;;;-145.18;100.00;46717.03;5085224;28;20040;-66
2023/12/11 05:46:59;;;;;;;31.03;4.50;;;;;;;-145.18;100.00;46720.94;5084613;28;20415;-66
2023/12/11 05:49:25;;;;;;;25.93;4.67;;;;;;;-145.18;100.00;46713.13;5081432;28;20028;-73
2023/12/11 05:51:51;;;;;;;16.10;4.00;;;;;;;-145.18;100.00;46720.94;5084402;28;20024;-73
2023/12/11 05:54:16;;;;;;;22.13;3.97;;;;;;;-145.18;100.00;46719.00;5078277;28;20541;-74
2023/12/11 05:56:42;;;;;;;30.83;3.43;;;;;;;-145.18;100.00;46713.13;5078203;28;20046;-73
2023/12/11 05:59:08;;;;;;;25.47;4.20;;;;;;;-145.18;100.00;46713.13;5082695;28;20028;-73
2023/12/11 06:01:33;;;;;;;19.93;3.67;;;;;;;-145.18;100.00;46713.13;5072065;28;20112;-74
2023/12/11 06:04:00;;;;;;;26.77;2.90;;;;;;;-145.18;100.00;46713.13;5082905;28;20439;-73
2023/12/11 06:06:26;;;;;;;24.03;3.60;;;;;;;-145.18;100.00;46717.03;5093203;28;20020;-73
2023/12/11 06:08:51;;;;;;;24.33;4.27;;;;;;;-145.18;100.00;46715.09;5086393;28;20431;-73
2023/12/11 06:11:16;;;;;;;22.13;3.20;;;;;;;-145.18;100.00;46719.00;5090321;28;20146;-73
2023/12/11 06:13:42;;;;;;;21.93;4.23;;;;;;;-145.18;100.00;46715.09;5082371;28;20056;-73
2023/12/11 06:16:09;;;;;;;25.47;4.27;;;;;;;-145.18;100.00;46715.09;5072651;28;20031;-73
2023/12/11 06:18:34;;;;;;;24.80;3.93;;;;;;;-145.18;100.00;46717.03;5074779;28;20032;-73
2023/12/11 06:20:59;;;;;;;29.17;3.17;;;;;;;-145.18;100.00;46713.13;5088887;28;20028;-72
2023/12/11 06:23:25;;;;;;;28.63;3.60;;;;;;;-145.18;100.00;46720.94;5082619;28;20037;-72
2023/12/11 06:25:51;;;;;;;21.77;2.97;;;;;;;-145.18;100.00;46720.94;5084117;28;20070;-72
2023/12/11 06:28:16;;;;;;;34.33;4.97;;;;;;;-145.18;100.00;46720.94;5096927;28;20028;-73
2023/12/11 06:30:42;;;;;;;29.23;3.70;;;;;;;-145.18;100.00;46715.09;5074818;28;20025;-73
2023/12/11 06:33:07;;;;;;;22.33;3.77;;;;;;;-145.18;100.00;46719.00;5080063;28;20031;-73
2023/12/11 06:35:33;;;;;;;22.30;4.30;;;;;;;-145.18;100.00;46719.00;5075485;28;20050;-73
2023/12/11 06:37:58;;;;;;;32.73;3.70;;;;;;;-145.18;100.00;46713.13;5076636;28;20035;-73
2023/12/11 06:40:23;;;;;;;38.80;4.53;;;;;;;-145.18;100.00;46719.00;5082814;28;20032;-73
2023/12/11 06:42:49;;;;;;;21.50;2.83;;;;;;;-145.18;100.00;46713.13;5077534;28;20477;-73
2023/12/11 06:45:14;;;;;;;32.70;4.53;;;;;;;-145.18;100.00;46715.09;5072175;28;20025;-72
2023/12/11 06:47:40;;;;;;;29.73;3.57;;;;;;;-145.18;100.00;46715.09;5076194;28;20373;-73
2023/12/11 06:50:05;;;;;;;17.73;2.70;;;;;;;-145.18;100.00;46715.09;5085496;28;20028;-73
2023/12/11 06:52:31;;;;;;;20.43;3.20;;;;;;;-145.18;100.00;46717.03;5078741;28;20029;-73
2023/12/11 06:54:56;;;;;;;18.80;2.87;;;;;;;-145.18;100.00;46715.09;5070548;28;20043;-73
2023/12/11 06:57:22;;;;;;;17.17;2.73;;;;;;;-145.18;100.00;46715.09;5072217;28;20033;-73
2023/12/11 06:59:47;;;;;;;16.90;2.50;;;;;;;-145.18;100.00;46713.13;5077960;28;20098;-72
2023/12/11 07:02:13;;;;;;;12.53;3.57;;;;;;;-145.18;100.00;46713.13;5074769;28;20484;-72
2023/12/11 07:04:42;;;;;;;16.67;2.77;;;;;;;-145.18;100.00;46709.22;5073978;28;20036;-73
2023/12/11 07:07:08;;;;;;;17.57;2.47;;;;;;;-145.18;100.00;46715.09;5083037;28;20020;-73
2023/12/11 07:09:33;;;;;;;10.07;1.87;;;;;;;-145.18;100.00;46717.03;5065166;28;20058;-72
2023/12/11 07:11:59;;;;;;;9.10;1.97;;;;;;;-145.18;100.00;46713.13;5084505;28;20057;-72
2023/12/11 07:14:24;;;;;;;12.67;1.77;;;;;;;-145.18;100.00;46717.03;5086705;28;20086;-72
2023/12/11 07:16:50;;;;;;;15.63;2.20;;;;;;;-145.18;100.00;46715.09;5080750;28;20108;-72
2023/12/11 07:19:16;;;;;;;11.90;1.47;;;;;;;-145.18;100.00;46711.19;5072894;28;20701;-73
2023/12/11 07:21:45;;;;;;;21.43;2.60;;;;;;;-145.18;100.00;46713.13;5090496;28;20028;-72
2023/12/11 07:24:11;;;;;;;7.83;1.50;;;;;;;-145.18;100.00;46711.19;5076757;28;20024;-73
2023/12/11 07:26:37;;;;;;;15.93;2.00;;;;;;;-145.18;100.00;46703.38;5090272;28;20801;-73
2023/12/11 07:29:04;;;;;;;10.70;1.50;;;;;;;-145.18;100.00;46697.50;5076506;28;20024;-73
2023/12/11 07:31:30;;;;;;;13.30;2.40;;;;;;;-145.18;100.00;46709.22;5071856;28;20089;-72
2023/12/11 07:33:55;;;;;;;21.63;4.07;;;;;;;-145.18;100.00;46701.41;5073542;28;20594;-72
2023/12/11 07:36:22;;;;;;;6.57;1.63;;;;;;;-145.18;100.00;46705.31;5076039;28;20039;-73
2023/12/11 07:38:49;;;;;;;23.17;3.13;;;;;;;-145.18;100.00;46699.47;5083551;28;20075;-72
2023/12/11 07:41:19;;;;;;;18.27;2.87;;;;;;;-145.18;100.00;46699.47;5077155;28;20318;-72
2023/12/11 07:43:45;;;;;;;8.43;1.87;;;;;;;-145.18;100.00;46699.47;5077444;28;20132;-72
2023/12/11 07:46:20;;;;;;;13.80;1.80;;;;;;;-145.18;100.00;46691.66;5078083;28;20269;-72
2023/12/11 07:48:45;;;;;;;15.80;3.33;;;;;;;-145.18;100.00;46693.59;5073697;28;20024;-72
2023/12/11 07:51:37;;;;;;;11.27;2.13;;;;;;;-145.18;100.00;46697.50;5080656;28;20412;-72
2023/12/11 07:54:02;;;;;;;17.03;2.93;;;;;;;-145.18;100.00;46701.41;5089592;28;20032;-72
2023/12/11 07:56:29;;;;;;;17.30;3.23;;;;;;;-145.18;100.00;46701.41;5097904;28;20280;-72
2023/12/11 07:58:55;;;;;;;23.60;2.17;;;;;;;-145.18;100.00;46705.31;5083395;28;20021;-72
2023/12/11 08:01:20;;;;;;;15.07;2.70;;;;;;;-145.18;100.00;46705.31;5087552;28;20495;-72
2023/12/11 08:03:46;;;;;;;12.37;2.03;;;;;;;-145.18;100.00;46703.38;5075578;28;20033;-72
2023/12/11 08:06:11;;;;;;;10.20;1.50;;;;;;;-145.18;100.00;46699.47;5073688;28;20052;-72
2023/12/11 08:08:43;;;;;;;12.03;1.77;;;;;;;-145.18;100.00;46701.41;5075835;28;20082;-72
2023/12/11 08:11:29;;;;;;;13.00;2.07;;;;;;;-145.18;100.00;46703.38;5075715;28;20435;-72
2023/12/11 08:13:55;;;;;;;17.40;2.07;;;;;;;-145.18;100.00;46705.31;5071161;28;20056;-72
2023/12/11 08:16:22;;;;;;;18.73;1.97;;;;;;;-145.18;100.00;46709.22;5083917;28;20383;-72
2023/12/11 08:18:48;;;;;;;16.77;2.83;;;;;;;-145.18;100.00;46707.28;5080279;28;20024;-72
2023/12/11 08:21:14;;;;;;;11.83;2.60;;;;;;;-145.18;100.00;46707.28;5072773;28;20421;-72
2023/12/11 08:23:40;;;;;;;19.87;3.53;;;;;;;-145.18;100.00;46707.28;5088661;28;20030;-72
2023/12/11 08:26:06;;;;;;;15.93;3.73;;;;;;;-145.18;100.00;46707.28;5087256;28;20514;-73
2023/12/11 08:28:32;;;;;;;18.40;2.63;;;;;;;-145.18;100.00;46703.38;5093932;28;20035;-72
2023/12/11 08:30:57;;;;;;;15.00;2.57;;;;;;;-145.18;100.00;46705.31;5092688;28;20028;-72
2023/12/11 08:33:22;;;;;;;21.17;2.43;;;;;;;-145.18;100.00;46709.22;5085756;28;20032;-72
2023/12/11 08:35:48;;;;;;;10.80;1.73;;;;;;;-145.18;100.00;46709.22;5089700;28;20366;-72
2023/12/11 08:38:15;;;;;;;9.83;2.03;;;;;;;-145.18;100.00;46703.38;5073117;28;20127;-73
2023/12/11 08:40:40;;;;;;;12.57;2.07;;;;;;;-145.18;100.00;46709.22;5074636;28;20025;-72
2023/12/11 08:43:06;;;;;;;14.10;1.80;;;;;;;-145.18;100.00;46709.22;5074543;28;20031;-72
2023/12/11 08:45:32;;;;;;;16.83;2.70;;;;;;;-145.18;100.00;46709.22;5074833;28;20024;-72
2023/12/11 08:47:58;;;;;;;10.97;1.73;;;;;;;-145.18;100.00;46705.31;5074870;28;20090;-72
2023/12/11 08:50:23;;;;;;;14.67;3.13;;;;;;;-145.18;100.00;46705.31;5074806;28;20450;-73
2023/12/11 08:52:49;;;;;;;9.00;1.47;;;;;;;-145.18;100.00;46705.31;5079803;28;20104;-73
2023/12/11 08:55:14;;;;;;;11.70;1.90;;;;;;;-145.18;100.00;46701.41;5074558;28;20058;-72
2023/12/11 08:57:42;;;;;;;7.80;1.73;;;;;;;-145.18;100.00;46703.38;5074633;28;20024;-72
2023/12/11 09:00:10;;;;;;;13.03;2.23;;;;;;;-145.18;100.00;46701.41;5074235;28;20476;-72
2023/12/11 09:02:35;;;;;;;15.33;2.00;;;;;;;-145.18;100.00;46695.56;5100603;28;20033;-72
2023/12/11 09:05:01;;;;;;;8.30;2.23;;;;;;;-145.18;100.00;46699.47;5074045;28;20051;-72
2023/12/11 09:07:26;;;;;;;11.13;1.40;;;;;;;-145.18;100.00;46701.41;5086539;28;20114;-72
2023/12/11 09:09:52;;;;;;;11.40;1.53;;;;;;;-145.18;100.00;46701.41;5085655;28;20063;-72
2023/12/11 09:12:17;;;;;;;12.93;1.50;;;;;;;-145.18;100.00;46697.50;5082092;28;20053;-72
2023/12/11 09:14:43;;;;;;;12.37;1.63;;;;;;;-145.18;100.00;46699.47;5084787;28;20032;-72
2023/12/11 09:17:08;;;;;;;12.63;2.00;;;;;;;-145.18;100.00;46691.66;5089677;28;20035;-72
2023/12/11 09:19:33;;;;;;;7.50;2.53;;;;;;;-145.18;100.00;46691.66;5075260;28;20051;-72
2023/12/11 09:21:59;;;;;;;8.63;1.27;;;;;;;-145.18;100.00;46699.47;5086593;28;20032;-72
2023/12/11 09:24:24;;;;;;;9.90;1.40;;;;;;;-145.18;100.00;46693.59;5092446;28;20502;-72
2023/12/11 09:26:50;;;;;;;7.53;2.27;;;;;;;-145.18;100.00;46699.47;5085664;28;20042;-72
2023/12/11 09:29:15;;;;;;;16.53;2.03;;;;;;;-145.18;100.00;46695.56;5090095;28;20028;-72
2023/12/11 09:31:40;;;;;;;9.03;2.20;;;;;;;-145.18;100.00;46693.59;5091806;28;20063;-72
2023/12/11 09:34:06;;;;;;;8.50;2.03;;;;;;;-145.18;100.00;46685.78;5083397;28;20040;-72
2023/12/11 09:36:32;;;;;;;14.47;1.83;;;;;;;-145.18;100.00;46689.69;5077638;28;20044;-72
2023/12/11 09:38:58;;;;;;;11.00;2.33;;;;;;;-145.18;100.00;46683.84;5073156;28;20445;-72
2023/12/11 09:41:29;;;;;;;10.20;1.83;;;;;;;-145.18;100.00;46691.66;5087781;28;20046;-72
2023/12/11 09:43:55;;;;;;;14.17;2.07;;;;;;;-145.18;100.00;46677.97;5075032;28;20043;-72
2023/12/11 09:46:22;;;;;;;12.13;2.73;;;;;;;-145.18;100.00;46689.69;5071593;28;20273;-72
2023/12/11 09:48:48;;;;;;;9.43;2.00;;;;;;;-145.18;100.00;46685.78;5079545;28;20039;-72
2023/12/11 09:51:15;;;;;;;6.17;1.80;;;;;;;-145.18;100.00;46691.66;5077387;28;20029;-72
2023/12/11 09:53:41;;;;;;;7.00;1.80;;;;;;;-145.18;100.00;46689.69;5073192;28;20033;-72
2023/12/11 09:56:07;;;;;;;10.80;2.00;;;;;;;-145.18;100.00;46693.59;5074083;28;20429;-72
2023/12/11 09:58:32;;;;;;;6.37;1.93;;;;;;;-145.18;100.00;46689.69;5082469;28;20380;-72
2023/12/11 10:01:00;;;;;;;7.80;1.87;;;;;;;-145.18;100.00;46687.75;5074809;28;20037;-72
2023/12/11 10:03:29;;;;;;;9.90;2.00;;;;;;;-145.18;100.00;46689.69;5091182;28;20063;-72
2023/12/11 10:06:03;;;;;;;10.43;2.47;;;;;;;-145.18;100.00;46687.75;5090297;28;20357;-72
2023/12/11 10:08:29;;;;;;;8.87;2.37;;;;;;;-145.18;100.00;46689.69;5088474;28;20059;-72
2023/12/11 10:11:19;;;;;;;12.53;2.90;;;;;;;-145.18;100.00;46683.84;5090075;28;20289;-72
2023/12/11 10:13:45;;;;;;;8.03;2.00;;;;;;;-145.18;100.00;46685.78;5081957;28;20079;-72
2023/12/11 10:16:31;;;;;;;8.03;2.07;;;;;;;-145.18;100.00;46685.78;5084059;28;20312;-72
2023/12/11 10:18:57;;;;;;;5.97;1.60;;;;;;;-145.18;100.00;46681.88;5090510;28;20032;-72
2023/12/11 10:21:26;;;;;;;19.03;5.30;;;;;;;-145.18;100.00;46687.75;5081019;28;20292;-72
2023/12/11 10:24:02;;;;;;;11.33;2.30;;;;;;;-145.18;100.00;46687.75;5078224;28;20467;-72
2023/12/11 10:26:27;;;;;;;12.88;2.20;;;;;;;-145.18;100.00;46685.78;5081590;28;20051;-72
2023/12/11 10:28:53;;;;;;;11.67;2.07;;;;;;;-145.18;100.00;46685.78;5071169;28;20489;-72
2023/12/11 10:31:19;;;;;;;12.40;2.80;;;;;;;-145.18;100.00;46681.88;5078961;28;20122;-72
2023/12/11 10:33:51;;;;;;;11.83;2.57;;;;;;;-145.18;100.00;46685.78;5090000;28;20028;-72
2023/12/11 10:36:17;;;;;;;15.90;2.87;;;;;;;-145.18;100.00;46683.84;5090494;28;20111;-71
2023/12/11 10:38:43;;;;;;;10.97;2.00;;;;;;;-145.18;100.00;46683.84;5077673;28;20552;-72
2023/12/11 10:41:23;;;;;;;15.77;2.83;;;;;;;-145.18;100.00;46683.84;5076124;28;20032;-72
2023/12/11 10:43:48;;;;;;;11.27;2.40;;;;;;;-145.18;100.00;46683.84;5083960;28;20319;-72
2023/12/11 10:46:14;;;;;;;9.03;2.10;;;;;;;-145.18;100.00;46683.84;5084917;28;20277;-72
2023/12/11 10:48:40;;;;;;;8.47;2.50;;;;;;;-145.18;100.00;46681.88;5071836;28;20017;-72
2023/12/11 10:51:05;;;;;;;20.03;3.13;;;;;;;-145.18;100.00;46681.88;5071871;28;20020;-72
2023/12/11 10:53:33;;;;;;;9.07;2.93;;;;;;;-145.18;100.00;46683.84;5073494;28;20272;-72
2023/12/11 10:56:00;;;;;;;13.67;2.57;;;;;;;-145.18;100.00;46681.88;5076791;28;20370;-72
2023/12/11 10:58:26;;;;;;;14.53;2.60;;;;;;;-145.18;100.00;46685.78;5086937;28;20063;-72